sensor_id;sensor_type;location;lat;lon;timestamp;P1;durP1;ratioP1;P2;durP2;ratioP2
20705;SDS011;10514;49.468;11.044;2023-02-15T00:01:23;24.87;;;11.80;;
20705;SDS011;10514;49.468;11.044;2023-02-15T00:03:49;26.20;;;13.07;;
20705;SDS011;10514;49.468;11.044;2023-02-15T00:06:16;22.43;;;11.93;;
20705;SDS011;10514;49.468;11.044;2023-02-15T00:08:42;24.27;;;12.17;;
20705;SDS011;10514;49.468;11.044;2023-02-15T00:11:12;20.67;;;11.20;;
20705;SDS011;10514;49.468;11.044;2023-02-15T00:13:39;26.50;;;13.77;;
20705;SDS011;10514;49.468;11.044;2023-02-15T00:16:11;22.53;;;12.43;;
20705;SDS011;10514;49.468;11.044;2023-02-15T00:18:38;25.57;;;12.33;;
20705;SDS011;10514;49.468;11.044;2023-02-15T00:21:05;23.73;;;12.57;;
20705;SDS011;10514;49.468;11.044;2023-02-15T00:23:32;22.57;;;12.30;;
20705;SDS011;10514;49.468;11.044;2023-02-15T00:26:08;22.00;;;11.87;;
20705;SDS011;10514;49.468;11.044;2023-02-15T00:28:34;24.97;;;12.80;;
20705;SDS011;10514;49.468;11.044;2023-02-15T00:33:32;24.53;;;12.97;;
20705;SDS011;10514;49.468;11.044;2023-02-15T00:35:59;20.23;;;11.73;;
20705;SDS011;10514;49.468;11.044;2023-02-15T00:38:26;21.60;;;11.77;;
20705;SDS011;10514;49.468;11.044;2023-02-15T00:40:53;24.03;;;12.37;;
20705;SDS011;10514;49.468;11.044;2023-02-15T00:43:19;22.43;;;12.03;;
20705;SDS011;10514;49.468;11.044;2023-02-15T00:45:45;25.73;;;12.47;;
20705;SDS011;10514;49.468;11.044;2023-02-15T00:48:11;20.30;;;10.00;;
20705;SDS011;10514;49.468;11.044;2023-02-15T00:50:37;22.10;;;11.40;;
20705;SDS011;10514;49.468;11.044;2023-02-15T00:53:03;24.57;;;12.10;;
20705;SDS011;10514;49.468;11.044;2023-02-15T00:55:29;20.40;;;10.90;;
20705;SDS011;10514;49.468;11.044;2023-02-15T00:57:55;19.07;;;11.17;;
20705;SDS011;10514;49.468;11.044;2023-02-15T01:00:20;21.60;;;10.70;;
20705;SDS011;10514;49.468;11.044;2023-02-15T01:02:46;21.00;;;11.23;;
20705;SDS011;10514;49.468;11.044;2023-02-15T01:05:12;23.90;;;11.30;;
20705;SDS011;10514;49.468;11.044;2023-02-15T01:07:38;26.77;;;10.93;;
20705;SDS011;10514;49.468;11.044;2023-02-15T01:10:05;28.23;;;10.67;;
20705;SDS011;10514;49.468;11.044;2023-02-15T01:12:31;21.57;;;11.17;;
20705;SDS011;10514;49.468;11.044;2023-02-15T01:14:57;19.23;;;10.90;;
20705;SDS011;10514;49.468;11.044;2023-02-15T01:17:23;18.80;;;10.43;;
20705;SDS011;10514;49.468;11.044;2023-02-15T01:19:49;20.37;;;11.30;;
20705;SDS011;10514;49.468;11.044;2023-02-15T01:22:16;22.70;;;12.17;;
20705;SDS011;10514;49.468;11.044;2023-02-15T01:24:42;22.83;;;12.53;;
20705;SDS011;10514;49.468;11.044;2023-02-15T01:27:08;22.80;;;11.10;;
20705;SDS011;10514;49.468;11.044;2023-02-15T01:29:34;23.27;;;12.77;;
20705;SDS011;10514;49.468;11.044;2023-02-15T01:31:59;24.87;;;12.30;;
20705;SDS011;10514;49.468;11.044;2023-02-15T01:34:25;22.57;;;12.13;;
20705;SDS011;10514;49.468;11.044;2023-02-15T01:36:51;25.30;;;11.83;;
20705;SDS011;10514;49.468;11.044;2023-02-15T01:39:17;20.17;;;11.67;;
20705;SDS011;10514;49.468;11.044;2023-02-15T01:41:43;23.73;;;12.23;;
20705;SDS011;10514;49.468;11.044;2023-02-15T01:46:54;23.77;;;10.67;;
20705;SDS011;10514;49.468;11.044;2023-02-15T01:49:20;20.90;;;11.47;;
20705;SDS011;10514;49.468;11.044;2023-02-15T01:51:49;18.67;;;10.47;;
20705;SDS011;10514;49.468;11.044;2023-02-15T01:54:20;21.40;;;11.43;;
20705;SDS011;10514;49.468;11.044;2023-02-15T01:56:49;23.10;;;12.30;;
20705;SDS011;10514;49.468;11.044;2023-02-15T01:59:16;21.37;;;11.87;;
20705;SDS011;10514;49.468;11.044;2023-02-15T02:01:46;23.07;;;11.77;;
20705;SDS011;10514;49.468;11.044;2023-02-15T02:04:17;21.90;;;10.80;;
20705;SDS011;10514;49.468;11.044;2023-02-15T02:06:44;23.33;;;11.40;;
20705;SDS011;10514;49.468;11.044;2023-02-15T02:09:10;21.33;;;11.77;;
20705;SDS011;10514;49.468;11.044;2023-02-15T02:11:37;22.07;;;10.93;;
20705;SDS011;10514;49.468;11.044;2023-02-15T02:14:05;22.47;;;11.17;;
20705;SDS011;10514;49.468;11.044;2023-02-15T02:16:43;19.47;;;11.37;;
20705;SDS011;10514;49.468;11.044;2023-02-15T02:34:56;22.07;;;11.80;;
20705;SDS011;10514;49.468;11.044;2023-02-15T02:37:25;24.67;;;12.27;;
20705;SDS011;10514;49.468;11.044;2023-02-15T02:40:03;23.73;;;11.80;;
20705;SDS011;10514;49.468;11.044;2023-02-15T02:42:38;25.90;;;12.83;;
20705;SDS011;10514;49.468;11.044;2023-02-15T02:45:19;24.63;;;11.60;;
20705;SDS011;10514;49.468;11.044;2023-02-15T02:47:47;20.77;;;10.77;;
20705;SDS011;10514;49.468;11.044;2023-02-15T02:50:15;26.07;;;12.33;;
20705;SDS011;10514;49.468;11.044;2023-02-15T02:52:43;24.30;;;10.83;;
20705;SDS011;10514;49.468;11.044;2023-02-15T02:58:17;22.13;;;11.47;;
20705;SDS011;10514;49.468;11.044;2023-02-15T03:00:48;23.00;;;11.87;;
20705;SDS011;10514;49.468;11.044;2023-02-15T03:06:00;22.50;;;11.47;;
20705;SDS011;10514;49.468;11.044;2023-02-15T03:08:31;28.60;;;12.20;;
20705;SDS011;10514;49.468;11.044;2023-02-15T03:11:05;21.27;;;11.60;;
20705;SDS011;10514;49.468;11.044;2023-02-15T03:13:31;23.73;;;11.20;;
20705;SDS011;10514;49.468;11.044;2023-02-15T03:15:57;24.97;;;12.00;;
20705;SDS011;10514;49.468;11.044;2023-02-15T03:18:43;18.17;;;9.87;;
20705;SDS011;10514;49.468;11.044;2023-02-15T03:21:17;22.23;;;10.90;;
20705;SDS011;10514;49.468;11.044;2023-02-15T03:23:48;23.20;;;11.70;;
20705;SDS011;10514;49.468;11.044;2023-02-15T03:26:15;21.47;;;10.30;;
20705;SDS011;10514;49.468;11.044;2023-02-15T03:28:42;22.43;;;11.40;;
20705;SDS011;10514;49.468;11.044;2023-02-15T03:31:09;22.70;;;11.80;;
20705;SDS011;10514;49.468;11.044;2023-02-15T03:33:38;20.33;;;10.67;;
20705;SDS011;10514;49.468;11.044;2023-02-15T03:38:47;23.40;;;11.63;;
20705;SDS011;10514;49.468;11.044;2023-02-15T03:41:13;25.27;;;11.30;;
20705;SDS011;10514;49.468;11.044;2023-02-15T03:43:53;21.90;;;11.80;;
20705;SDS011;10514;49.468;11.044;2023-02-15T03:46:28;21.40;;;11.07;;
20705;SDS011;10514;49.468;11.044;2023-02-15T03:48:57;22.50;;;10.80;;
20705;SDS011;10514;49.468;11.044;2023-02-15T03:51:26;26.40;;;12.90;;
20705;SDS011;10514;49.468;11.044;2023-02-15T03:54:00;23.53;;;11.10;;
20705;SDS011;10514;49.468;11.044;2023-02-15T03:56:27;24.17;;;11.00;;
20705;SDS011;10514;49.468;11.044;2023-02-15T03:58:52;21.27;;;10.87;;
20705;SDS011;10514;49.468;11.044;2023-02-15T04:01:37;21.50;;;10.40;;
20705;SDS011;10514;49.468;11.044;2023-02-15T04:04:26;20.47;;;10.67;;
20705;SDS011;10514;49.468;11.044;2023-02-15T04:06:56;23.13;;;11.33;;
20705;SDS011;10514;49.468;11.044;2023-02-15T04:09:22;21.00;;;10.93;;
20705;SDS011;10514;49.468;11.044;2023-02-15T04:12:06;19.40;;;10.17;;
20705;SDS011;10514;49.468;11.044;2023-02-15T04:14:32;22.23;;;11.30;;
20705;SDS011;10514;49.468;11.044;2023-02-15T04:17:16;19.07;;;10.07;;
20705;SDS011;10514;49.468;11.044;2023-02-15T04:19:42;20.10;;;10.57;;
20705;SDS011;10514;49.468;11.044;2023-02-15T04:22:26;17.60;;;9.90;;
20705;SDS011;10514;49.468;11.044;2023-02-15T04:25:11;18.03;;;9.67;;
20705;SDS011;10514;49.468;11.044;2023-02-15T04:27:47;20.73;;;10.53;;
20705;SDS011;10514;49.468;11.044;2023-02-15T04:30:14;15.67;;;8.57;;
20705;SDS011;10514;49.468;11.044;2023-02-15T04:32:41;16.87;;;9.10;;
20705;SDS011;10514;49.468;11.044;2023-02-15T04:35:08;21.10;;;10.90;;
20705;SDS011;10514;49.468;11.044;2023-02-15T04:37:34;17.73;;;9.37;;
20705;SDS011;10514;49.468;11.044;2023-02-15T04:40:00;18.17;;;9.77;;
20705;SDS011;10514;49.468;11.044;2023-02-15T04:42:26;20.80;;;9.97;;
20705;SDS011;10514;49.468;11.044;2023-02-15T04:44:53;17.07;;;9.63;;
20705;SDS011;10514;49.468;11.044;2023-02-15T04:47:19;16.20;;;9.60;;
20705;SDS011;10514;49.468;11.044;2023-02-15T04:49:45;16.47;;;9.07;;
20705;SDS011;10514;49.468;11.044;2023-02-15T04:52:10;15.13;;;8.27;;
20705;SDS011;10514;49.468;11.044;2023-02-15T04:54:36;15.33;;;8.73;;
20705;SDS011;10514;49.468;11.044;2023-02-15T04:57:03;17.07;;;9.33;;
20705;SDS011;10514;49.468;11.044;2023-02-15T04:59:29;19.07;;;9.57;;
20705;SDS011;10514;49.468;11.044;2023-02-15T05:01:54;15.83;;;9.50;;
20705;SDS011;10514;49.468;11.044;2023-02-15T05:04:20;15.57;;;8.60;;
20705;SDS011;10514;49.468;11.044;2023-02-15T05:06:46;15.50;;;9.13;;
20705;SDS011;10514;49.468;11.044;2023-02-15T05:09:12;18.80;;;10.40;;
20705;SDS011;10514;49.468;11.044;2023-02-15T05:11:38;18.73;;;10.23;;
20705;SDS011;10514;49.468;11.044;2023-02-15T05:14:04;18.60;;;10.43;;
20705;SDS011;10514;49.468;11.044;2023-02-15T05:16:30;18.17;;;10.37;;
20705;SDS011;10514;49.468;11.044;2023-02-15T05:18:57;19.03;;;10.87;;
20705;SDS011;10514;49.468;11.044;2023-02-15T05:21:23;15.00;;;8.90;;
20705;SDS011;10514;49.468;11.044;2023-02-15T05:23:49;20.27;;;11.00;;
20705;SDS011;10514;49.468;11.044;2023-02-15T05:26:16;18.13;;;10.90;;
20705;SDS011;10514;49.468;11.044;2023-02-15T05:29:02;21.33;;;10.83;;
20705;SDS011;10514;49.468;11.044;2023-02-15T05:31:28;19.13;;;10.27;;
20705;SDS011;10514;49.468;11.044;2023-02-15T05:33:54;19.33;;;10.47;;
20705;SDS011;10514;49.468;11.044;2023-02-15T05:36:20;21.07;;;11.17;;
20705;SDS011;10514;49.468;11.044;2023-02-15T05:38:45;19.73;;;10.50;;
20705;SDS011;10514;49.468;11.044;2023-02-15T05:41:11;23.80;;;12.03;;
20705;SDS011;10514;49.468;11.044;2023-02-15T05:43:37;19.67;;;10.10;;
20705;SDS011;10514;49.468;11.044;2023-02-15T05:46:04;20.43;;;10.60;;
20705;SDS011;10514;49.468;11.044;2023-02-15T05:48:30;20.87;;;10.70;;
20705;SDS011;10514;49.468;11.044;2023-02-15T05:50:57;25.67;;;12.33;;
20705;SDS011;10514;49.468;11.044;2023-02-15T05:53:31;21.37;;;10.03;;
20705;SDS011;10514;49.468;11.044;2023-02-15T05:55:57;20.83;;;10.73;;
20705;SDS011;10514;49.468;11.044;2023-02-15T05:58:25;21.93;;;10.80;;
20705;SDS011;10514;49.468;11.044;2023-02-15T06:00:51;21.20;;;10.50;;
20705;SDS011;10514;49.468;11.044;2023-02-15T06:03:17;21.57;;;11.57;;
20705;SDS011;10514;49.468;11.044;2023-02-15T06:05:42;20.30;;;10.73;;
20705;SDS011;10514;49.468;11.044;2023-02-15T06:08:09;19.93;;;11.10;;
20705;SDS011;10514;49.468;11.044;2023-02-15T06:10:35;22.17;;;12.03;;
20705;SDS011;10514;49.468;11.044;2023-02-15T06:13:01;19.57;;;9.60;;
20705;SDS011;10514;49.468;11.044;2023-02-15T06:15:27;22.83;;;11.23;;
20705;SDS011;10514;49.468;11.044;2023-02-15T06:17:53;18.77;;;10.17;;
20705;SDS011;10514;49.468;11.044;2023-02-15T06:20:18;20.43;;;10.87;;
20705;SDS011;10514;49.468;11.044;2023-02-15T06:22:44;21.63;;;10.87;;
20705;SDS011;10514;49.468;11.044;2023-02-15T06:25:10;25.30;;;12.30;;
20705;SDS011;10514;49.468;11.044;2023-02-15T06:27:36;21.97;;;12.00;;
20705;SDS011;10514;49.468;11.044;2023-02-15T06:30:04;26.03;;;12.50;;
20705;SDS011;10514;49.468;11.044;2023-02-15T06:32:30;20.73;;;11.70;;
20705;SDS011;10514;49.468;11.044;2023-02-15T06:34:56;23.47;;;11.13;;
20705;SDS011;10514;49.468;11.044;2023-02-15T06:37:22;21.13;;;11.07;;
20705;SDS011;10514;49.468;11.044;2023-02-15T06:39:48;26.20;;;11.20;;
20705;SDS011;10514;49.468;11.044;2023-02-15T06:42:14;23.07;;;11.43;;
20705;SDS011;10514;49.468;11.044;2023-02-15T06:44:40;20.13;;;11.43;;
20705;SDS011;10514;49.468;11.044;2023-02-15T06:47:06;23.80;;;12.07;;
20705;SDS011;10514;49.468;11.044;2023-02-15T06:49:32;25.50;;;12.40;;
20705;SDS011;10514;49.468;11.044;2023-02-15T06:51:57;19.63;;;10.77;;
20705;SDS011;10514;49.468;11.044;2023-02-15T06:54:23;21.63;;;10.90;;
20705;SDS011;10514;49.468;11.044;2023-02-15T06:56:49;24.97;;;11.87;;
20705;SDS011;10514;49.468;11.044;2023-02-15T06:59:15;24.90;;;12.23;;
20705;SDS011;10514;49.468;11.044;2023-02-15T07:01:41;25.07;;;11.70;;
20705;SDS011;10514;49.468;11.044;2023-02-15T07:04:07;23.70;;;13.63;;
20705;SDS011;10514;49.468;11.044;2023-02-15T07:06:33;21.87;;;12.63;;
20705;SDS011;10514;49.468;11.044;2023-02-15T07:08:59;27.17;;;12.87;;
20705;SDS011;10514;49.468;11.044;2023-02-15T07:11:26;24.63;;;12.00;;
20705;SDS011;10514;49.468;11.044;2023-02-15T07:14:11;24.67;;;12.30;;
20705;SDS011;10514;49.468;11.044;2023-02-15T07:16:37;19.53;;;11.00;;
20705;SDS011;10514;49.468;11.044;2023-02-15T07:19:03;24.40;;;13.13;;
20705;SDS011;10514;49.468;11.044;2023-02-15T07:21:29;21.70;;;11.17;;
20705;SDS011;10514;49.468;11.044;2023-02-15T07:23:56;27.70;;;12.33;;
20705;SDS011;10514;49.468;11.044;2023-02-15T07:26:24;25.17;;;11.77;;
20705;SDS011;10514;49.468;11.044;2023-02-15T07:28:50;31.63;;;14.40;;
20705;SDS011;10514;49.468;11.044;2023-02-15T07:31:16;22.20;;;11.57;;
20705;SDS011;10514;49.468;11.044;2023-02-15T07:33:42;23.00;;;12.57;;
20705;SDS011;10514;49.468;11.044;2023-02-15T07:36:08;23.80;;;12.40;;
20705;SDS011;10514;49.468;11.044;2023-02-15T07:38:37;21.10;;;11.07;;
20705;SDS011;10514;49.468;11.044;2023-02-15T07:41:07;20.60;;;10.43;;
20705;SDS011;10514;49.468;11.044;2023-02-15T07:43:35;23.33;;;11.13;;
20705;SDS011;10514;49.468;11.044;2023-02-15T07:46:05;25.70;;;12.20;;
20705;SDS011;10514;49.468;11.044;2023-02-15T07:48:36;24.97;;;10.73;;
20705;SDS011;10514;49.468;11.044;2023-02-15T07:51:03;22.83;;;12.17;;
20705;SDS011;10514;49.468;11.044;2023-02-15T07:53:30;22.53;;;11.83;;
20705;SDS011;10514;49.468;11.044;2023-02-15T07:55:59;23.57;;;12.13;;
20705;SDS011;10514;49.468;11.044;2023-02-15T07:58:26;22.30;;;11.07;;
20705;SDS011;10514;49.468;11.044;2023-02-15T08:01:12;22.83;;;11.10;;
20705;SDS011;10514;49.468;11.044;2023-02-15T08:03:38;24.00;;;11.10;;
20705;SDS011;10514;49.468;11.044;2023-02-15T08:06:04;21.40;;;11.37;;
20705;SDS011;10514;49.468;11.044;2023-02-15T08:08:30;21.03;;;11.57;;
20705;SDS011;10514;49.468;11.044;2023-02-15T08:11:00;22.50;;;10.53;;
20705;SDS011;10514;49.468;11.044;2023-02-15T08:13:46;26.17;;;11.60;;
20705;SDS011;10514;49.468;11.044;2023-02-15T08:16:28;21.97;;;10.63;;
20705;SDS011;10514;49.468;11.044;2023-02-15T08:18:55;23.13;;;10.30;;
20705;SDS011;10514;49.468;11.044;2023-02-15T08:21:21;26.60;;;12.53;;
20705;SDS011;10514;49.468;11.044;2023-02-15T08:23:47;30.53;;;12.97;;
20705;SDS011;10514;49.468;11.044;2023-02-15T08:26:14;26.47;;;13.23;;
20705;SDS011;10514;49.468;11.044;2023-02-15T08:28:40;23.27;;;10.63;;
20705;SDS011;10514;49.468;11.044;2023-02-15T08:31:07;25.23;;;12.27;;
20705;SDS011;10514;49.468;11.044;2023-02-15T08:33:34;24.60;;;11.50;;
20705;SDS011;10514;49.468;11.044;2023-02-15T08:36:07;23.80;;;11.33;;
20705;SDS011;10514;49.468;11.044;2023-02-15T08:38:34;25.17;;;11.93;;
20705;SDS011;10514;49.468;11.044;2023-02-15T08:41:08;22.90;;;10.80;;
20705;SDS011;10514;49.468;11.044;2023-02-15T08:43:42;22.47;;;11.50;;
20705;SDS011;10514;49.468;11.044;2023-02-15T08:46:10;25.40;;;11.80;;
20705;SDS011;10514;49.468;11.044;2023-02-15T08:48:36;20.23;;;10.97;;
20705;SDS011;10514;49.468;11.044;2023-02-15T08:51:07;21.60;;;10.40;;
20705;SDS011;10514;49.468;11.044;2023-02-15T08:53:33;19.23;;;9.97;;
20705;SDS011;10514;49.468;11.044;2023-02-15T08:55:59;18.83;;;10.13;;
20705;SDS011;10514;49.468;11.044;2023-02-15T08:58:25;20.63;;;10.23;;
20705;SDS011;10514;49.468;11.044;2023-02-15T09:00:51;22.70;;;10.03;;
20705;SDS011;10514;49.468;11.044;2023-02-15T09:03:17;20.13;;;10.17;;
20705;SDS011;10514;49.468;11.044;2023-02-15T09:05:43;26.90;;;11.60;;
20705;SDS011;10514;49.468;11.044;2023-02-15T09:08:09;22.47;;;10.73;;
20705;SDS011;10514;49.468;11.044;2023-02-15T09:10:35;18.30;;;9.83;;
20705;SDS011;10514;49.468;11.044;2023-02-15T09:13:02;21.03;;;10.00;;
20705;SDS011;10514;49.468;11.044;2023-02-15T09:15:27;16.60;;;9.40;;
20705;SDS011;10514;49.468;11.044;2023-02-15T09:17:53;19.23;;;10.23;;
20705;SDS011;10514;49.468;11.044;2023-02-15T09:20:19;26.43;;;11.07;;
20705;SDS011;10514;49.468;11.044;2023-02-15T09:22:46;23.33;;;10.53;;
20705;SDS011;10514;49.468;11.044;2023-02-15T09:25:12;17.13;;;10.33;;
20705;SDS011;10514;49.468;11.044;2023-02-15T09:27:39;22.20;;;10.80;;
20705;SDS011;10514;49.468;11.044;2023-02-15T09:30:06;21.80;;;10.90;;
20705;SDS011;10514;49.468;11.044;2023-02-15T09:32:32;21.80;;;10.80;;
20705;SDS011;10514;49.468;11.044;2023-02-15T09:34:58;19.73;;;10.23;;
20705;SDS011;10514;49.468;11.044;2023-02-15T09:37:24;16.07;;;8.60;;
20705;SDS011;10514;49.468;11.044;2023-02-15T09:39:50;21.87;;;10.30;;
20705;SDS011;10514;49.468;11.044;2023-02-15T09:58:11;18.00;;;9.27;;
20705;SDS011;10514;49.468;11.044;2023-02-15T10:00:47;16.93;;;9.30;;
20705;SDS011;10514;49.468;11.044;2023-02-15T10:08:52;17.97;;;9.00;;
20705;SDS011;10514;49.468;11.044;2023-02-15T10:11:26;13.87;;;8.33;;
20705;SDS011;10514;49.468;11.044;2023-02-15T10:22:10;30.77;;;9.73;;
20705;SDS011;10514;49.468;11.044;2023-02-15T10:24:43;18.43;;;8.80;;
20705;SDS011;10514;49.468;11.044;2023-02-15T10:27:15;19.83;;;10.03;;
20705;SDS011;10514;49.468;11.044;2023-02-15T10:30:29;18.40;;;9.87;;
20705;SDS011;10514;49.468;11.044;2023-02-15T10:32:28;19.37;;;9.97;;
20705;SDS011;10514;49.468;11.044;2023-02-15T10:37:41;19.30;;;9.60;;
20705;SDS011;10514;49.468;11.044;2023-02-15T10:40:14;17.90;;;10.03;;
20705;SDS011;10514;49.468;11.044;2023-02-15T10:45:23;14.90;;;8.10;;
20705;SDS011;10514;49.468;11.044;2023-02-15T10:50:57;17.13;;;9.87;;
20705;SDS011;10514;49.468;11.044;2023-02-15T10:53:33;15.30;;;9.67;;
20705;SDS011;10514;49.468;11.044;2023-02-15T10:56:10;17.27;;;9.80;;
20705;SDS011;10514;49.468;11.044;2023-02-15T11:01:27;16.30;;;8.23;;
20705;SDS011;10514;49.468;11.044;2023-02-15T11:04:22;18.77;;;9.60;;
20705;SDS011;10514;49.468;11.044;2023-02-15T11:06:53;15.53;;;8.83;;
20705;SDS011;10514;49.468;11.044;2023-02-15T11:09:21;15.37;;;8.93;;
20705;SDS011;10514;49.468;11.044;2023-02-15T11:11:49;20.87;;;9.00;;
20705;SDS011;10514;49.468;11.044;2023-02-15T11:16:45;15.10;;;8.17;;
20705;SDS011;10514;49.468;11.044;2023-02-15T11:19:18;16.97;;;8.83;;
20705;SDS011;10514;49.468;11.044;2023-02-15T11:21:47;21.10;;;8.77;;
20705;SDS011;10514;49.468;11.044;2023-02-15T11:24:16;15.77;;;9.10;;
20705;SDS011;10514;49.468;11.044;2023-02-15T11:27:31;14.10;;;9.07;;
20705;SDS011;10514;49.468;11.044;2023-02-15T11:29:39;14.63;;;9.20;;
20705;SDS011;10514;49.468;11.044;2023-02-15T11:32:14;16.00;;;8.63;;
20705;SDS011;10514;49.468;11.044;2023-02-15T11:35:10;14.57;;;8.80;;
20705;SDS011;10514;49.468;11.044;2023-02-15T11:37:32;15.07;;;9.37;;
20705;SDS011;10514;49.468;11.044;2023-02-15T11:40:02;16.83;;;10.03;;
20705;SDS011;10514;49.468;11.044;2023-02-15T11:42:30;20.50;;;11.27;;
20705;SDS011;10514;49.468;11.044;2023-02-15T11:47:41;18.23;;;11.20;;
20705;SDS011;10514;49.468;11.044;2023-02-15T11:50:18;18.70;;;10.47;;
20705;SDS011;10514;49.468;11.044;2023-02-15T11:52:47;19.10;;;10.67;;
20705;SDS011;10514;49.468;11.044;2023-02-15T11:55:18;18.93;;;10.77;;
20705;SDS011;10514;49.468;11.044;2023-02-15T11:57:46;19.07;;;11.23;;
20705;SDS011;10514;49.468;11.044;2023-02-15T12:00:27;17.10;;;10.07;;
20705;SDS011;10514;49.468;11.044;2023-02-15T12:03:07;17.70;;;9.80;;
20705;SDS011;10514;49.468;11.044;2023-02-15T12:05:35;19.80;;;11.63;;
20705;SDS011;10514;49.468;11.044;2023-02-15T12:08:11;19.17;;;10.97;;
20705;SDS011;10514;49.468;11.044;2023-02-15T12:10:40;17.03;;;10.87;;
20705;SDS011;10514;49.468;11.044;2023-02-15T12:13:17;19.57;;;11.93;;
20705;SDS011;10514;49.468;11.044;2023-02-15T12:15:46;17.37;;;11.10;;
20705;SDS011;10514;49.468;11.044;2023-02-15T12:18:18;20.00;;;12.00;;
20705;SDS011;10514;49.468;11.044;2023-02-15T12:20:44;19.67;;;11.60;;
20705;SDS011;10514;49.468;11.044;2023-02-15T12:23:12;20.13;;;11.57;;
20705;SDS011;10514;49.468;11.044;2023-02-15T12:25:43;21.20;;;12.33;;
20705;SDS011;10514;49.468;11.044;2023-02-15T12:28:24;19.30;;;11.50;;
20705;SDS011;10514;49.468;11.044;2023-02-15T12:30:52;26.10;;;12.57;;
20705;SDS011;10514;49.468;11.044;2023-02-15T12:35:47;22.17;;;13.07;;
20705;SDS011;10514;49.468;11.044;2023-02-15T12:40:41;19.73;;;11.77;;
20705;SDS011;10514;49.468;11.044;2023-02-15T12:43:27;23.40;;;13.37;;
20705;SDS011;10514;49.468;11.044;2023-02-15T12:46:13;21.50;;;12.27;;
20705;SDS011;10514;49.468;11.044;2023-02-15T12:48:40;25.60;;;12.97;;
20705;SDS011;10514;49.468;11.044;2023-02-15T12:51:07;22.13;;;12.73;;
20705;SDS011;10514;49.468;11.044;2023-02-15T12:53:34;22.83;;;12.07;;
20705;SDS011;10514;49.468;11.044;2023-02-15T12:56:01;19.50;;;11.87;;
20705;SDS011;10514;49.468;11.044;2023-02-15T13:01:37;19.43;;;11.47;;
20705;SDS011;10514;49.468;11.044;2023-02-15T13:04:03;20.67;;;11.60;;
20705;SDS011;10514;49.468;11.044;2023-02-15T13:06:34;21.50;;;11.73;;
20705;SDS011;10514;49.468;11.044;2023-02-15T13:09:14;20.53;;;12.70;;
20705;SDS011;10514;49.468;11.044;2023-02-15T13:11:41;26.50;;;14.60;;
20705;SDS011;10514;49.468;11.044;2023-02-15T13:14:22;24.87;;;11.87;;
20705;SDS011;10514;49.468;11.044;2023-02-15T13:16:56;20.83;;;12.17;;
20705;SDS011;10514;49.468;11.044;2023-02-15T13:22:10;22.33;;;12.27;;
20705;SDS011;10514;49.468;11.044;2023-02-15T13:24:43;20.40;;;11.40;;
20705;SDS011;10514;49.468;11.044;2023-02-15T13:27:19;18.20;;;11.10;;
20705;SDS011;10514;49.468;11.044;2023-02-15T13:29:56;24.13;;;13.73;;
20705;SDS011;10514;49.468;11.044;2023-02-15T13:32:41;26.70;;;12.67;;
20705;SDS011;10514;49.468;11.044;2023-02-15T13:35:13;20.27;;;11.83;;
20705;SDS011;10514;49.468;11.044;2023-02-15T13:43:05;25.00;;;13.97;;
20705;SDS011;10514;49.468;11.044;2023-02-15T13:53:44;23.20;;;14.37;;
20705;SDS011;10514;49.468;11.044;2023-02-15T13:56:28;22.83;;;12.83;;
20705;SDS011;10514;49.468;11.044;2023-02-15T14:06:40;28.27;;;14.30;;
20705;SDS011;10514;49.468;11.044;2023-02-15T14:09:27;23.33;;;14.27;;
20705;SDS011;10514;49.468;11.044;2023-02-15T14:17:38;20.87;;;12.57;;
20705;SDS011;10514;49.468;11.044;2023-02-15T14:20:22;21.53;;;13.40;;
20705;SDS011;10514;49.468;11.044;2023-02-15T14:22:54;25.20;;;14.27;;
20705;SDS011;10514;49.468;11.044;2023-02-15T14:25:27;24.30;;;14.33;;
20705;SDS011;10514;49.468;11.044;2023-02-15T14:30:31;28.83;;;15.17;;
20705;SDS011;10514;49.468;11.044;2023-02-15T14:33:04;26.53;;;14.53;;
20705;SDS011;10514;49.468;11.044;2023-02-15T14:35:32;26.77;;;15.50;;
20705;SDS011;10514;49.468;11.044;2023-02-15T14:40:33;26.53;;;16.50;;
20705;SDS011;10514;49.468;11.044;2023-02-15T14:48:56;28.13;;;14.83;;
20705;SDS011;10514;49.468;11.044;2023-02-15T14:56:45;32.60;;;16.30;;
20705;SDS011;10514;49.468;11.044;2023-02-15T14:59:19;29.63;;;16.70;;
20705;SDS011;10514;49.468;11.044;2023-02-15T15:04:26;31.43;;;16.77;;
20705;SDS011;10514;49.468;11.044;2023-02-15T15:09:35;27.70;;;16.90;;
20705;SDS011;10514;49.468;11.044;2023-02-15T15:12:15;34.13;;;17.07;;
20705;SDS011;10514;49.468;11.044;2023-02-15T15:15:00;34.40;;;19.43;;
20705;SDS011;10514;49.468;11.044;2023-02-15T15:22:47;32.30;;;18.17;;
20705;SDS011;10514;49.468;11.044;2023-02-15T15:31:02;33.23;;;18.00;;
20705;SDS011;10514;49.468;11.044;2023-02-15T15:33:36;30.87;;;17.40;;
20705;SDS011;10514;49.468;11.044;2023-02-15T15:39:03;33.33;;;19.33;;
20705;SDS011;10514;49.468;11.044;2023-02-15T15:41:41;33.20;;;19.03;;
20705;SDS011;10514;49.468;11.044;2023-02-15T15:44:21;41.20;;;21.57;;
20705;SDS011;10514;49.468;11.044;2023-02-15T15:49:24;35.63;;;19.27;;
20705;SDS011;10514;49.468;11.044;2023-02-15T15:51:55;29.73;;;16.53;;
20705;SDS011;10514;49.468;11.044;2023-02-15T15:54:25;35.53;;;19.47;;
20705;SDS011;10514;49.468;11.044;2023-02-15T15:56:53;36.93;;;19.13;;
20705;SDS011;10514;49.468;11.044;2023-02-15T15:59:26;35.73;;;19.13;;
20705;SDS011;10514;49.468;11.044;2023-02-15T16:01:56;33.17;;;19.37;;
20705;SDS011;10514;49.468;11.044;2023-02-15T16:04:31;36.77;;;19.13;;
20705;SDS011;10514;49.468;11.044;2023-02-15T16:07:01;30.87;;;17.17;;
20705;SDS011;10514;49.468;11.044;2023-02-15T16:09:41;35.67;;;18.77;;
20705;SDS011;10514;49.468;11.044;2023-02-15T16:12:13;30.60;;;17.77;;
20705;SDS011;10514;49.468;11.044;2023-02-15T16:14:41;32.07;;;18.33;;
20705;SDS011;10514;49.468;11.044;2023-02-15T16:17:17;29.53;;;17.30;;
20705;SDS011;10514;49.468;11.044;2023-02-15T16:19:45;30.90;;;17.83;;
20705;SDS011;10514;49.468;11.044;2023-02-15T16:22:23;33.83;;;18.67;;
20705;SDS011;10514;49.468;11.044;2023-02-15T16:24:57;32.20;;;17.90;;
20705;SDS011;10514;49.468;11.044;2023-02-15T16:29:52;34.00;;;18.37;;
20705;SDS011;10514;49.468;11.044;2023-02-15T16:32:20;32.47;;;16.77;;
20705;SDS011;10514;49.468;11.044;2023-02-15T16:34:56;30.43;;;17.27;;
20705;SDS011;10514;49.468;11.044;2023-02-15T16:37:26;31.67;;;17.20;;
20705;SDS011;10514;49.468;11.044;2023-02-15T16:39:56;36.77;;;18.03;;
20705;SDS011;10514;49.468;11.044;2023-02-15T16:42:22;32.43;;;18.40;;
20705;SDS011;10514;49.468;11.044;2023-02-15T16:45:12;33.27;;;17.23;;
20705;SDS011;10514;49.468;11.044;2023-02-15T16:47:37;33.53;;;17.30;;
20705;SDS011;10514;49.468;11.044;2023-02-15T16:50:07;35.27;;;18.90;;
20705;SDS011;10514;49.468;11.044;2023-02-15T16:52:42;32.43;;;16.53;;
20705;SDS011;10514;49.468;11.044;2023-02-15T16:55:17;31.40;;;17.23;;
20705;SDS011;10514;49.468;11.044;2023-02-15T16:57:44;30.90;;;16.60;;
20705;SDS011;10514;49.468;11.044;2023-02-15T17:00:21;35.63;;;16.40;;